createdAt,value
2018-12-03T00:01:06.881Z,7.60
2018-12-03T00:03:41.056Z,7.43
2018-12-03T00:06:15.372Z,12.20
2018-12-03T00:08:49.691Z,10.17
2018-12-03T00:11:24.026Z,10.03
2018-12-03T00:13:58.521Z,11.63
2018-12-03T00:16:32.765Z,10.00
2018-12-03T00:19:07.675Z,12.43
2018-12-03T00:21:41.969Z,11.90
2018-12-03T00:24:16.230Z,12.37
2018-12-03T00:26:50.524Z,12.57
2018-12-03T00:29:24.792Z,12.37
2018-12-03T00:31:59.077Z,13.97
2018-12-03T00:34:33.412Z,15.30
2018-12-03T00:37:07.656Z,14.70
2018-12-03T00:39:41.874Z,15.40
2018-12-03T00:42:16.390Z,17.53
2018-12-03T00:44:50.697Z,15.07
2018-12-03T00:47:25.104Z,18.47
2018-12-03T00:49:59.477Z,16.87
2018-12-03T00:52:33.784Z,17.13
2018-12-03T00:55:08.540Z,16.60
2018-12-03T00:57:42.699Z,16.20
2018-12-03T01:00:17.033Z,16.67
2018-12-03T01:02:51.200Z,16.83
2018-12-03T01:05:25.489Z,18.77
2018-12-03T01:07:59.751Z,15.87
2018-12-03T01:10:34.111Z,20.10
2018-12-03T01:13:08.324Z,20.57
2018-12-03T01:15:42.693Z,18.47
2018-12-03T01:18:16.896Z,16.67
2018-12-03T01:20:51.201Z,18.37
2018-12-03T01:23:25.615Z,17.63
2018-12-03T01:25:59.841Z,16.07
2018-12-03T01:28:34.088Z,16.37
2018-12-03T01:31:08.429Z,20.00
2018-12-03T01:33:42.848Z,16.07
2018-12-03T01:36:17.313Z,18.47
2018-12-03T01:38:51.705Z,15.23
2018-12-03T01:41:26.120Z,16.73
2018-12-03T01:44:00.412Z,18.27
2018-12-03T01:46:34.688Z,16.63
2018-12-03T01:49:08.978Z,15.83
2018-12-03T01:51:43.181Z,18.37
2018-12-03T01:54:17.400Z,16.90
2018-12-03T01:56:51.615Z,17.53
2018-12-03T01:59:25.885Z,17.13
2018-12-03T02:02:00.321Z,15.77
2018-12-03T02:04:34.548Z,15.67
2018-12-03T02:07:08.873Z,16.63
2018-12-03T02:09:43.116Z,14.97
2018-12-03T02:12:17.444Z,21.13
2018-12-03T02:14:51.615Z,14.17
2018-12-03T02:17:26.065Z,14.10
2018-12-03T02:20:00.280Z,14.50
2018-12-03T02:22:34.444Z,14.33
2018-12-03T02:25:09.635Z,14.37
2018-12-03T02:27:43.776Z,14.80
2018-12-03T02:30:18.486Z,15.10
2018-12-03T02:32:52.932Z,15.30
2018-12-03T02:35:27.240Z,14.03
2018-12-03T02:38:01.512Z,16.07
2018-12-03T02:40:35.768Z,18.23
2018-12-03T02:43:10.087Z,18.20
2018-12-03T02:45:44.332Z,15.50
2018-12-03T02:48:18.749Z,17.97
2018-12-03T02:50:52.880Z,14.37
2018-12-03T02:53:27.101Z,18.03
2018-12-03T02:56:01.497Z,16.03
2018-12-03T02:58:35.776Z,16.00
2018-12-03T03:01:09.990Z,17.20
2018-12-03T03:03:44.210Z,15.03
2018-12-03T03:06:18.566Z,18.07
2018-12-03T03:08:53.096Z,21.60
2018-12-03T03:11:27.242Z,33.20
2018-12-03T03:14:01.505Z,24.97
2018-12-03T03:16:35.701Z,24.63
2018-12-03T03:19:09.996Z,20.20
2018-12-03T03:21:44.279Z,23.70
2018-12-03T03:24:18.471Z,16.93
2018-12-03T03:26:52.833Z,20.00
2018-12-03T03:29:27.004Z,19.50
2018-12-03T03:32:01.169Z,17.37
2018-12-03T03:34:35.354Z,18.73
2018-12-03T03:37:09.571Z,17.00
2018-12-03T03:39:43.832Z,16.27
2018-12-03T03:42:17.970Z,17.30
2018-12-03T03:44:52.264Z,15.30
2018-12-03T03:47:26.644Z,18.70
2018-12-03T03:50:00.831Z,45.20
2018-12-03T03:52:35.209Z,28.40
2018-12-03T03:55:10.131Z,16.13
2018-12-03T03:57:44.463Z,20.40
2018-12-03T04:00:18.693Z,19.50
2018-12-03T04:02:53.054Z,26.87
2018-12-03T04:05:27.427Z,13.47
2018-12-03T04:08:01.749Z,12.00
2018-12-03T04:10:36.113Z,14.17
2018-12-03T04:13:10.255Z,11.57
2018-12-03T04:15:44.920Z,13.53
2018-12-03T04:18:19.305Z,10.80
2018-12-03T04:20:53.617Z,9.03
2018-12-03T04:23:27.773Z,9.77
2018-12-03T04:26:02.034Z,9.80
2018-12-03T04:28:36.300Z,9.63
2018-12-03T04:31:10.575Z,8.93
2018-12-03T04:33:44.856Z,8.90
2018-12-03T04:36:19.162Z,9.13
2018-12-03T04:38:53.501Z,10.43
2018-12-03T04:41:27.764Z,9.93
2018-12-03T04:44:01.972Z,9.20
2018-12-03T04:46:36.259Z,10.33
2018-12-03T04:49:10.400Z,9.00
2018-12-03T04:51:44.622Z,8.07
2018-12-03T04:54:18.912Z,7.50
2018-12-03T04:56:53.194Z,9.03
2018-12-03T04:59:27.426Z,8.33
2018-12-03T05:02:01.607Z,7.47
2018-12-03T05:04:35.773Z,7.37
2018-12-03T05:07:10.101Z,8.10
2018-12-03T05:09:44.293Z,7.33
2018-12-03T05:12:18.545Z,7.77
2018-12-03T05:14:52.945Z,8.63
2018-12-03T05:17:27.129Z,9.63
2018-12-03T05:20:01.301Z,7.50
2018-12-03T05:22:35.560Z,7.20
2018-12-03T05:25:10.613Z,6.73
2018-12-03T05:27:44.764Z,7.70
2018-12-03T05:30:19.004Z,7.07
2018-12-03T05:32:53.248Z,7.33
2018-12-03T05:35:28.802Z,6.70
2018-12-03T05:38:02.949Z,7.23
2018-12-03T05:40:37.261Z,8.50
2018-12-03T05:43:11.642Z,7.63
2018-12-03T05:45:45.869Z,6.57
2018-12-03T05:48:20.181Z,7.43
2018-12-03T05:50:54.468Z,6.70
2018-12-03T05:53:28.752Z,7.03
2018-12-03T05:56:02.900Z,6.90
2018-12-03T05:58:37.040Z,7.17
2018-12-03T06:01:11.492Z,7.93
2018-12-03T06:03:45.821Z,6.70
2018-12-03T06:06:20.172Z,8.77
2018-12-03T06:08:54.739Z,6.33
2018-12-03T06:11:28.880Z,5.47
2018-12-03T06:14:03.088Z,6.20
2018-12-03T06:16:37.292Z,7.60
2018-12-03T06:19:11.645Z,5.87
2018-12-03T06:21:45.797Z,4.80
2018-12-03T06:24:19.965Z,5.07
2018-12-03T06:26:54.256Z,6.10
2018-12-03T06:29:28.438Z,6.63
2018-12-03T06:32:02.782Z,9.67
2018-12-03T06:34:37.070Z,14.90
2018-12-03T06:37:11.412Z,8.40
2018-12-03T06:39:45.710Z,14.13
2018-12-03T06:42:19.925Z,11.50
2018-12-03T06:44:54.093Z,9.93
2018-12-03T06:47:28.513Z,10.10
2018-12-03T06:50:02.704Z,10.87
2018-12-03T06:52:36.949Z,12.67
2018-12-03T06:55:11.332Z,16.37
2018-12-03T06:57:45.685Z,20.43
2018-12-03T07:00:21.325Z,15.20
2018-12-03T07:02:55.588Z,10.37
2018-12-03T07:05:29.894Z,14.93
2018-12-03T07:08:05.000Z,15.37
2018-12-03T07:10:39.345Z,9.50
2018-12-03T07:13:16.137Z,15.40
2018-12-03T07:15:52.756Z,9.07
2018-12-03T07:18:27.141Z,14.20
2018-12-03T07:21:01.364Z,13.43
2018-12-03T07:23:35.608Z,6.27
2018-12-03T07:26:09.893Z,6.53
2018-12-03T07:28:44.093Z,5.17
2018-12-03T07:31:18.320Z,5.53
2018-12-03T07:33:52.600Z,4.00
2018-12-03T07:36:26.799Z,3.63
2018-12-03T07:39:01.105Z,5.43
2018-12-03T07:41:35.393Z,6.03
2018-12-03T07:44:09.636Z,5.77
2018-12-03T07:46:44.024Z,6.37
2018-12-03T07:49:18.328Z,5.73
2018-12-03T07:51:52.485Z,7.70
2018-12-03T07:54:26.632Z,6.17
2018-12-03T07:57:00.841Z,5.43
2018-12-03T07:59:35.144Z,4.83
2018-12-03T08:02:09.577Z,7.50
2018-12-03T08:04:43.800Z,5.47
2018-12-03T08:07:17.988Z,6.37
2018-12-03T08:09:52.345Z,7.33
2018-12-03T08:12:26.529Z,8.27
2018-12-03T08:15:00.836Z,6.33
2018-12-03T08:17:35.125Z,6.33
2018-12-03T08:20:16.934Z,6.27
2018-12-03T08:22:53.416Z,7.53
2018-12-03T08:25:27.698Z,8.80
2018-12-03T08:28:02.065Z,8.73
2018-12-03T08:30:36.254Z,8.80
2018-12-03T08:33:10.469Z,10.37
2018-12-03T08:35:44.721Z,8.60
2018-12-03T08:38:18.996Z,7.57
2018-12-03T08:40:53.208Z,8.70
2018-12-03T08:43:27.512Z,9.13
2018-12-03T08:46:02.878Z,5.27
2018-12-03T08:48:38.656Z,8.93
2018-12-03T08:51:13.110Z,6.53
2018-12-03T08:53:48.508Z,10.70
2018-12-03T08:56:22.784Z,10.07
2018-12-03T08:58:57.024Z,8.80
2018-12-03T09:01:31.169Z,9.97
2018-12-03T09:04:08.864Z,9.27
2018-12-03T09:06:43.140Z,9.00
2018-12-03T09:09:18.117Z,10.20
2018-12-03T09:11:52.728Z,8.77
2018-12-03T09:14:29.303Z,9.10
2018-12-03T09:17:03.655Z,11.70
2018-12-03T09:19:38.131Z,9.33
2018-12-03T09:22:12.313Z,5.60
2018-12-03T09:24:46.628Z,10.50
2018-12-03T09:27:20.955Z,10.53
2018-12-03T09:29:58.195Z,10.00
2018-12-03T09:32:33.437Z,10.33
2018-12-03T09:35:09.069Z,9.67
2018-12-03T09:37:43.435Z,8.70
2018-12-03T09:40:28.504Z,10.43
2018-12-03T09:43:02.648Z,12.37
2018-12-03T09:45:36.968Z,8.13
2018-12-03T09:48:11.131Z,10.73
2018-12-03T09:50:45.334Z,9.63
2018-12-03T09:53:19.660Z,13.67
2018-12-03T09:55:53.933Z,7.00
2018-12-03T09:58:28.199Z,7.90
2018-12-03T10:01:02.473Z,9.93
2018-12-03T10:03:41.412Z,8.63
2018-12-03T10:06:17.168Z,10.03
2018-12-03T10:08:51.388Z,10.17
2018-12-03T10:11:25.754Z,13.17
2018-12-03T10:13:59.945Z,7.23
2018-12-03T10:16:34.436Z,8.90
2018-12-03T10:19:08.701Z,11.07
2018-12-03T10:21:46.253Z,10.90
2018-12-03T10:24:20.629Z,8.87
2018-12-03T10:26:54.860Z,12.97
2018-12-03T10:29:29.270Z,13.77
2018-12-03T10:32:03.651Z,10.87
2018-12-03T10:34:37.995Z,8.50
2018-12-03T10:37:12.428Z,9.67
2018-12-03T10:39:46.817Z,13.43
2018-12-03T10:42:21.140Z,12.20
2018-12-03T10:44:55.416Z,9.77
2018-12-03T10:47:29.756Z,8.33
2018-12-03T10:50:08.756Z,10.67
2018-12-03T10:52:42.904Z,13.00
2018-12-03T10:55:17.105Z,13.17
2018-12-03T10:57:51.460Z,14.23
2018-12-03T11:00:31.313Z,9.47
2018-12-03T11:03:11.037Z,12.70
2018-12-03T11:05:51.072Z,14.10
2018-12-03T11:08:25.267Z,10.80
2018-12-03T11:10:59.674Z,12.33
2018-12-03T11:13:33.952Z,9.90
2018-12-03T11:16:10.573Z,10.73
2018-12-03T11:18:49.096Z,11.60
2018-12-03T11:21:23.501Z,15.00
2018-12-03T11:23:57.724Z,17.17
2018-12-03T11:26:35.141Z,9.93
2018-12-03T11:29:09.603Z,13.53
2018-12-03T11:31:43.877Z,9.37
2018-12-03T11:34:22.272Z,16.80
2018-12-03T11:36:59.447Z,14.80
2018-12-03T11:39:43.941Z,11.13
2018-12-03T11:42:18.327Z,18.10
2018-12-03T11:44:52.708Z,14.07
2018-12-03T11:47:27.017Z,13.13
2018-12-03T11:50:01.188Z,16.43
2018-12-03T11:52:35.463Z,10.27
2018-12-03T11:55:09.838Z,15.87
2018-12-03T11:57:44.026Z,18.90
2018-12-03T12:00:18.255Z,8.40
2018-12-03T12:02:52.670Z,10.73
2018-12-03T12:05:26.998Z,13.80
2018-12-03T12:08:01.188Z,13.17
2018-12-03T12:10:35.516Z,10.00
2018-12-03T12:13:09.787Z,13.37
2018-12-03T12:15:44.101Z,12.43
2018-12-03T12:18:18.377Z,17.80
2018-12-03T12:20:52.696Z,10.87
2018-12-03T12:23:26.971Z,14.00
2018-12-03T12:26:01.420Z,12.47
2018-12-03T12:28:38.183Z,14.67
2018-12-03T12:31:09.907Z,18.70
2018-12-03T12:33:44.200Z,12.53
2018-12-03T12:36:18.477Z,16.83
2018-12-03T12:38:52.728Z,26.07
2018-12-03T12:41:27.156Z,17.20
2018-12-03T12:44:01.444Z,14.43
2018-12-03T12:46:36.900Z,16.23
2018-12-03T12:49:11.149Z,16.03
2018-12-03T12:51:45.308Z,14.83
2018-12-03T12:54:19.510Z,10.07
2018-12-03T12:56:53.860Z,11.43
2018-12-03T12:59:28.040Z,22.07
2018-12-03T13:02:02.515Z,11.77
2018-12-03T13:04:36.705Z,13.60
2018-12-03T13:07:11.162Z,11.77
2018-12-03T13:09:45.493Z,13.60
2018-12-03T13:12:19.808Z,16.37
2018-12-03T13:14:54.097Z,18.00
2018-12-03T13:17:29.755Z,11.97
2018-12-03T13:20:05.171Z,13.07
2018-12-03T13:22:39.503Z,12.10
2018-12-03T13:25:15.444Z,13.23
2018-12-03T13:27:50.821Z,20.00
2018-12-03T13:30:25.029Z,17.60
2018-12-03T13:32:59.388Z,14.63
2018-12-03T13:35:33.640Z,12.90
2018-12-03T13:38:07.812Z,17.67
2018-12-03T13:40:42.124Z,19.57
2018-12-03T13:43:16.552Z,12.40
2018-12-03T13:45:50.836Z,22.10
2018-12-03T13:48:25.061Z,24.33
2018-12-03T13:50:59.312Z,19.90
2018-12-03T13:53:33.641Z,16.83
2018-12-03T13:56:08.025Z,14.83
2018-12-03T13:58:42.190Z,17.20
2018-12-03T14:01:16.697Z,18.97
2018-12-03T14:03:51.502Z,15.97
2018-12-03T14:06:32.829Z,14.20
2018-12-03T14:09:20.925Z,20.50
2018-12-03T14:12:03.373Z,14.80
2018-12-03T14:14:56.175Z,17.67
2018-12-03T14:17:41.094Z,16.70
2018-12-03T14:20:15.630Z,14.07
2018-12-03T14:23:00.008Z,14.00
2018-12-03T14:25:34.313Z,17.33
2018-12-03T14:28:08.742Z,18.93
2018-12-03T14:30:43.064Z,14.77
2018-12-03T14:33:17.300Z,17.80
2018-12-03T14:35:51.572Z,10.83
2018-12-03T14:38:25.893Z,15.03
2018-12-03T14:41:00.181Z,15.87
2018-12-03T14:43:34.378Z,16.93
2018-12-03T14:46:08.675Z,13.93
2018-12-03T14:48:42.915Z,16.63
2018-12-03T14:51:17.220Z,15.77
2018-12-03T14:53:51.445Z,14.77
2018-12-03T14:56:25.684Z,13.33
2018-12-03T14:59:00.016Z,16.97
2018-12-03T15:01:34.216Z,14.07
2018-12-03T15:04:11.932Z,13.50
2018-12-03T15:06:46.220Z,17.27
2018-12-03T15:09:20.685Z,15.70
2018-12-03T15:12:29.564Z,12.27
2018-12-03T15:15:05.216Z,21.87
2018-12-03T15:17:41.592Z,13.47
2018-12-03T15:20:15.894Z,14.87
2018-12-03T15:22:50.330Z,17.37
2018-12-03T15:25:24.772Z,16.80
2018-12-03T15:27:59.079Z,15.07
2018-12-03T15:30:33.328Z,18.07
2018-12-03T15:33:07.536Z,14.13
2018-12-03T15:35:42.038Z,15.20
2018-12-03T15:38:16.392Z,18.73
2018-12-03T15:40:50.825Z,18.27
2018-12-03T15:43:25.217Z,12.50
2018-12-03T15:45:59.448Z,19.37
2018-12-03T15:48:33.936Z,11.20
2018-12-03T15:51:08.292Z,21.27
2018-12-03T15:53:42.624Z,13.80
2018-12-03T15:56:16.892Z,12.93
2018-12-03T15:58:51.345Z,16.33
2018-12-03T16:01:25.625Z,12.20
2018-12-03T16:03:59.860Z,16.70
2018-12-03T16:06:34.185Z,16.27
2018-12-03T16:09:11.465Z,10.70
2018-12-03T16:11:45.823Z,19.07
2018-12-03T16:14:20.105Z,16.67
2018-12-03T16:16:54.714Z,18.60
2018-12-03T16:19:29.057Z,20.50
2018-12-03T16:22:03.660Z,16.47
2018-12-03T16:24:38.705Z,10.20
2018-12-03T16:27:13.262Z,12.97
2018-12-03T16:29:47.705Z,15.27
2018-12-03T16:32:22.163Z,16.73
2018-12-03T16:34:56.712Z,14.33
2018-12-03T16:37:31.077Z,15.03
2018-12-03T16:40:06.980Z,14.93
2018-12-03T16:42:41.313Z,14.67
2018-12-03T16:45:15.621Z,17.37
2018-12-03T16:47:49.855Z,13.83
2018-12-03T16:50:24.206Z,11.90
2018-12-03T16:52:58.496Z,14.37
2018-12-03T16:55:33.010Z,13.03
2018-12-03T16:58:07.562Z,12.63
2018-12-03T17:00:41.742Z,21.63
2018-12-03T17:03:16.261Z,17.47
2018-12-03T17:05:50.680Z,13.90
2018-12-03T17:08:25.077Z,10.57
2018-12-03T17:10:59.484Z,14.90
2018-12-03T17:13:33.779Z,14.20
2018-12-03T17:16:08.078Z,14.83
2018-12-03T17:18:42.442Z,13.17
2018-12-03T17:23:29.820Z,17.87
2018-12-03T17:26:04.195Z,10.80
2018-12-03T17:28:38.532Z,12.60
2018-12-03T17:31:13.011Z,12.50
2018-12-03T17:33:48.311Z,11.60
2018-12-03T17:36:22.917Z,13.43
2018-12-03T17:38:57.352Z,11.17
2018-12-03T17:41:31.612Z,14.77
2018-12-03T17:44:06.552Z,13.93
2018-12-03T17:46:41.302Z,12.33
2018-12-03T17:49:15.749Z,14.07
2018-12-03T17:51:50.057Z,12.67
2018-12-03T17:54:24.200Z,15.93
2018-12-03T17:56:58.728Z,12.97
2018-12-03T17:59:32.927Z,9.20
2018-12-03T18:02:07.395Z,16.97
2018-12-03T18:04:41.661Z,13.03
2018-12-03T18:07:15.976Z,12.57
2018-12-03T18:09:51.609Z,11.30
2018-12-03T18:12:25.976Z,14.30
2018-12-03T18:15:00.231Z,13.37
2018-12-03T18:17:34.701Z,12.43
2018-12-03T18:20:09.865Z,14.33
2018-12-03T18:22:44.193Z,13.77
2018-12-03T18:25:18.657Z,12.63
2018-12-03T18:27:52.902Z,13.10
2018-12-03T18:30:27.562Z,12.30
2018-12-03T18:33:01.808Z,14.63
2018-12-03T18:35:36.388Z,11.93
2018-12-03T18:38:10.740Z,16.33
2018-12-03T18:40:45.127Z,13.47
2018-12-03T18:43:19.480Z,8.77
2018-12-03T18:45:53.653Z,13.43
2018-12-03T18:48:28.062Z,12.60
2018-12-03T18:51:02.540Z,11.70
2018-12-03T18:53:36.892Z,14.53
2018-12-03T18:56:11.069Z,10.17
2018-12-03T18:58:55.682Z,16.83
2018-12-03T19:01:30.160Z,15.80
2018-12-03T19:04:04.608Z,14.87
2018-12-03T19:06:38.978Z,9.40
2018-12-03T19:09:13.321Z,16.13
2018-12-03T19:11:47.606Z,14.47
2018-12-03T19:14:21.815Z,11.07
2018-12-03T19:16:56.431Z,15.87
2018-12-03T19:19:30.899Z,14.13
2018-12-03T19:22:05.281Z,13.67
2018-12-03T19:24:39.436Z,12.43
2018-12-03T19:27:13.780Z,16.57
2018-12-03T19:29:48.020Z,12.50
2018-12-03T19:32:22.407Z,10.33
2018-12-03T19:34:56.868Z,15.03
2018-12-03T19:37:31.142Z,22.27
2018-12-03T19:40:06.940Z,16.27
2018-12-03T19:42:41.314Z,23.80
2018-12-03T19:45:15.569Z,15.00
2018-12-03T19:47:49.944Z,9.17
2018-12-03T19:50:24.292Z,15.43
2018-12-03T19:52:58.640Z,12.00
2018-12-03T19:55:34.137Z,10.03
2018-12-03T19:58:14.157Z,11.13
2018-12-03T20:00:49.172Z,13.40
2018-12-03T20:03:23.321Z,11.80
2018-12-03T20:05:57.899Z,11.90
2018-12-03T20:08:32.118Z,13.17
2018-12-03T20:11:07.161Z,14.63
2018-12-03T20:13:41.305Z,10.73
2018-12-03T20:16:15.605Z,15.43
2018-12-03T20:18:49.941Z,13.80
2018-12-03T20:21:25.321Z,13.20
2018-12-03T20:24:03.549Z,15.53
2018-12-03T20:26:46.072Z,11.50
2018-12-03T20:29:37.865Z,11.50
2018-12-03T20:32:33.427Z,12.57
2018-12-03T20:35:18.406Z,15.77
2018-12-03T20:38:06.806Z,10.53
2018-12-03T20:41:25.142Z,15.37
2018-12-03T20:44:08.040Z,14.60
2018-12-03T20:46:53.698Z,15.90
2018-12-03T20:49:39.009Z,12.57
2018-12-03T20:52:18.222Z,12.07
2018-12-03T20:54:54.554Z,15.10
2018-12-03T20:57:28.811Z,14.30
2018-12-03T21:00:03.178Z,13.27
2018-12-03T21:02:37.500Z,14.50
2018-12-03T21:05:11.758Z,14.77
2018-12-03T21:07:46.290Z,11.60
2018-12-03T21:10:20.748Z,13.37
2018-12-03T21:12:54.953Z,12.37
2018-12-03T21:15:29.317Z,15.27
2018-12-03T21:18:03.677Z,17.53
2018-12-03T21:20:45.541Z,14.63
2018-12-03T21:23:19.864Z,12.67
2018-12-03T21:25:54.243Z,14.90
2018-12-03T21:28:28.401Z,15.63
2018-12-03T21:31:02.907Z,16.13
2018-12-03T21:33:37.278Z,14.80
2018-12-03T21:36:11.672Z,16.60
2018-12-03T21:38:45.977Z,13.83
2018-12-03T21:41:20.337Z,13.93
2018-12-03T21:43:54.709Z,14.47
2018-12-03T21:46:29.113Z,12.30
2018-12-03T21:49:03.518Z,13.80
2018-12-03T21:51:37.741Z,13.00
2018-12-03T21:54:12.060Z,17.30
2018-12-03T21:56:46.584Z,10.77
2018-12-03T21:59:20.788Z,10.33
2018-12-03T22:01:55.180Z,11.80
2018-12-03T22:04:29.531Z,11.83
2018-12-03T22:07:03.973Z,11.53
2018-12-03T22:09:38.326Z,12.33
2018-12-03T22:12:12.652Z,14.20
2018-12-03T22:14:46.996Z,9.13
2018-12-03T22:17:21.509Z,7.20
2018-12-03T22:19:56.909Z,10.23
2018-12-03T22:22:31.146Z,7.73
2018-12-03T22:25:05.660Z,7.80
2018-12-03T22:27:39.865Z,9.47
2018-12-03T22:30:14.294Z,8.80
2018-12-03T22:32:48.635Z,7.47
2018-12-03T22:35:22.932Z,5.90
2018-12-03T22:37:57.233Z,7.87
2018-12-03T22:40:31.553Z,8.67
2018-12-03T22:43:05.881Z,10.90
2018-12-03T22:45:40.274Z,6.50
2018-12-03T22:48:14.634Z,3.37
2018-12-03T22:50:49.085Z,4.03
2018-12-03T22:53:23.435Z,5.40
2018-12-03T22:55:57.706Z,3.57
2018-12-03T22:58:32.021Z,4.20
2018-12-03T23:01:08.120Z,2.70
2018-12-03T23:03:42.325Z,1.90
2018-12-03T23:06:16.785Z,2.07
2018-12-03T23:08:51.110Z,1.53
2018-12-03T23:11:25.581Z,2.37
2018-12-03T23:13:59.943Z,5.53
2018-12-03T23:16:34.602Z,2.20
2018-12-03T23:19:08.929Z,3.53
2018-12-03T23:21:43.376Z,2.23
2018-12-03T23:24:17.688Z,2.63
2018-12-03T23:26:52.497Z,2.47
2018-12-03T23:29:26.836Z,3.67
2018-12-03T23:32:01.281Z,3.47
2018-12-03T23:34:35.464Z,2.23
2018-12-03T23:37:10.268Z,2.73
2018-12-03T23:39:44.556Z,2.57
2018-12-03T23:42:18.888Z,1.23
2018-12-03T23:44:53.391Z,1.83
2018-12-03T23:47:27.798Z,4.63
2018-12-03T23:50:02.170Z,2.47
2018-12-03T23:52:36.503Z,5.43
2018-12-03T23:55:11.072Z,3.60
2018-12-03T23:57:45.336Z,3.63
